Time;durP1;ratioP1;P1;durP2;ratioP2;P2;SDS_P1;SDS_P2;PMS_P1;PMS_P2;Temp;Humidity;BMP_temperature;BMP_pressure;BME280_temperature;BME280_humidity;BME280_pressure;Samples;Min_cycle;Max_cycle;Signal;HPM_P1;HPM_P2
2020/12/16 00:00:49;;;;;;;7.47;2.43;;;9.10;99.90;;;;;;5096177;28;20031;-62
2020/12/16 00:03:15;;;;;;;9.53;2.10;;;9.20;99.90;;;;;;5100628;28;20023;-62
2020/12/16 00:05:41;;;;;;;13.13;2.93;;;9.10;99.90;;;;;;5116686;28;20050;-62
2020/12/16 00:08:06;;;;;;;11.80;3.33;;;9.10;99.90;;;;;;5116332;28;20020;-63
2020/12/16 00:10:32;;;;;;;6.97;2.30;;;9.00;99.90;;;;;;5116858;28;20028;-62
2020/12/16 00:12:58;;;;;;;9.47;2.47;;;9.00;99.90;;;;;;5116405;28;20031;-63
2020/12/16 00:15:25;;;;;;;7.30;3.20;;;9.00;99.90;;;;;;5121144;28;20066;-62
2020/12/16 00:17:51;;;;;;;8.80;2.00;;;9.00;99.90;;;;;;5120626;28;20016;-63
2020/12/16 00:20:17;;;;;;;15.10;3.37;;;9.00;99.90;;;;;;5101867;28;20027;-63
2020/12/16 00:22:43;;;;;;;7.37;2.53;;;9.10;99.90;;;;;;5094035;28;20020;-63
2020/12/16 00:25:10;;;;;;;8.40;1.87;;;9.10;99.90;;;;;;5096731;28;20038;-63
2020/12/16 00:27:36;;;;;;;5.10;1.87;;;9.10;99.90;;;;;;5100389;28;20115;-62
2020/12/16 00:30:05;;;;;;;10.17;2.30;;;9.10;99.90;;;;;;5099947;28;20042;-63
2020/12/16 00:32:31;;;;;;;11.87;5.03;;;9.10;99.90;;;;;;5100644;28;20422;-63
2020/12/16 00:34:56;;;;;;;7.63;2.40;;;9.10;99.90;;;;;;5100948;28;20028;-63
2020/12/16 00:37:22;;;;;;;10.23;3.17;;;9.00;99.90;;;;;;5100572;28;20401;-63
2020/12/16 00:39:48;;;;;;;4.30;1.90;;;9.00;99.90;;;;;;5100832;28;20028;-63
2020/12/16 00:42:14;;;;;;;8.33;2.70;;;9.10;99.90;;;;;;5100457;28;20055;-63
2020/12/16 00:44:39;;;;;;;10.30;3.63;;;9.10;99.90;;;;;;5089915;28;20404;-63
2020/12/16 00:47:05;;;;;;;14.60;3.77;;;9.00;99.90;;;;;;5119883;28;20085;-63
2020/12/16 00:49:31;;;;;;;12.47;2.57;;;9.00;99.90;;;;;;5120365;28;20034;-62
2020/12/16 00:51:58;;;;;;;12.83;2.20;;;9.00;99.90;;;;;;5119993;28;20026;-62
2020/12/16 00:54:23;;;;;;;8.30;2.37;;;9.00;99.90;;;;;;5101314;28;20039;-63
2020/12/16 00:56:49;;;;;;;8.97;2.10;;;9.10;99.90;;;;;;5120181;28;20028;-63
2020/12/16 00:59:15;;;;;;;9.00;2.07;;;9.10;99.90;;;;;;5119453;28;20027;-62
2020/12/16 01:01:40;;;;;;;8.37;1.73;;;9.10;99.90;;;;;;5120125;28;20067;-63
2020/12/16 01:04:06;;;;;;;7.03;2.20;;;9.20;99.90;;;;;;5101497;28;20036;-62
2020/12/16 01:06:32;;;;;;;21.43;4.27;;;9.20;99.90;;;;;;5113723;28;20028;-62
2020/12/16 01:08:57;;;;;;;7.60;2.73;;;9.30;99.90;;;;;;5099151;28;20084;-63
2020/12/16 01:11:23;;;;;;;16.40;3.83;;;9.30;99.90;;;;;;5117547;28;20346;-63
2020/12/16 01:13:48;;;;;;;12.80;4.20;;;9.30;99.90;;;;;;5101227;28;20032;-63
2020/12/16 01:16:14;;;;;;;14.40;3.97;;;9.40;99.90;;;;;;5119110;28;20101;-62
2020/12/16 01:18:40;;;;;;;8.87;2.93;;;9.40;99.90;;;;;;5110957;28;20388;-63
2020/12/16 01:21:05;;;;;;;6.00;2.07;;;9.50;99.90;;;;;;5081286;28;20035;-63
2020/12/16 01:23:31;;;;;;;8.83;2.23;;;9.50;99.90;;;;;;5099197;28;20111;-63
2020/12/16 01:25:57;;;;;;;10.47;1.97;;;9.60;99.90;;;;;;5110621;28;20024;-62
2020/12/16 01:28:22;;;;;;;5.87;1.87;;;9.60;99.90;;;;;;5119090;28;20442;-62
2020/12/16 01:30:48;;;;;;;15.13;3.67;;;9.60;99.90;;;;;;5119618;28;20037;-61
2020/12/16 01:33:14;;;;;;;9.20;2.77;;;9.60;99.90;;;;;;5119306;28;20030;-63
2020/12/16 01:35:39;;;;;;;9.20;2.50;;;9.50;99.90;;;;;;5119552;28;20031;-62
2020/12/16 01:38:05;;;;;;;12.93;3.53;;;9.70;99.90;;;;;;5118991;28;20074;-62
2020/12/16 01:40:31;;;;;;;10.40;2.20;;;9.60;99.90;;;;;;5099167;28;20024;-62
2020/12/16 01:42:56;;;;;;;7.77;2.80;;;9.60;99.90;;;;;;5110669;28;20020;-63
2020/12/16 01:45:23;;;;;;;13.63;3.07;;;9.60;99.90;;;;;;5118717;28;20118;-62
2020/12/16 01:47:50;;;;;;;10.70;2.87;;;9.70;99.90;;;;;;5091589;28;20378;-62
2020/12/16 01:50:16;;;;;;;12.50;2.47;;;9.60;99.90;;;;;;5098196;28;20031;-62
2020/12/16 01:52:43;;;;;;;10.20;2.27;;;9.70;99.90;;;;;;5088399;28;20027;-62
2020/12/16 01:55:11;;;;;;;17.07;2.53;;;9.70;99.90;;;;;;5105117;28;20020;-62
2020/12/16 01:57:39;;;;;;;15.80;3.17;;;9.80;99.90;;;;;;5098641;28;20150;-63
2020/12/16 02:00:10;;;;;;;11.07;2.40;;;9.80;99.90;;;;;;5098248;28;20016;-63
2020/12/16 02:02:51;;;;;;;11.37;2.20;;;9.80;99.90;;;;;;5103163;28;20020;-62
2020/12/16 02:05:20;;;;;;;7.13;2.20;;;9.70;99.90;;;;;;5118738;28;20035;-62
2020/12/16 02:07:46;;;;;;;9.07;2.73;;;9.70;99.90;;;;;;5098575;28;20324;-62
2020/12/16 02:10:13;;;;;;;11.03;3.00;;;9.70;99.90;;;;;;5109722;28;20038;-63
2020/12/16 02:12:39;;;;;;;10.47;2.60;;;9.70;99.90;;;;;;5118290;28;20115;-62
2020/12/16 02:15:06;;;;;;;10.10;3.30;;;9.80;99.90;;;;;;5109054;28;20102;-62
2020/12/16 02:17:32;;;;;;;7.93;1.80;;;9.80;99.90;;;;;;5097538;28;20024;-62
2020/12/16 02:20:05;;;;;;;13.03;3.00;;;9.80;99.90;;;;;;5101360;28;20034;-63
2020/12/16 02:22:31;;;;;;;12.27;3.85;;;9.80;99.90;;;;;;5085663;28;20020;-62
2020/12/16 02:25:06;;;;;;;11.00;2.20;;;9.80;99.90;;;;;;5098060;28;20122;-62
2020/12/16 02:27:33;;;;;;;14.87;2.07;;;9.80;99.90;;;;;;5098019;28;20032;-62
2020/12/16 02:29:59;;;;;;;13.30;5.43;;;9.80;99.90;;;;;;5117678;28;20106;-62
2020/12/16 02:32:27;;;;;;;12.83;3.47;;;9.70;99.90;;;;;;5118532;28;20062;-62
2020/12/16 02:34:54;;;;;;;9.93;2.70;;;9.70;99.90;;;;;;5099502;28;20020;-62
2020/12/16 02:37:20;;;;;;;11.60;2.97;;;9.80;99.90;;;;;;5088877;28;20081;-62
2020/12/16 02:39:47;;;;;;;9.70;2.83;;;9.70;99.90;;;;;;5115696;28;20422;-63
2020/12/16 02:42:27;;;;;;;10.23;2.80;;;9.80;99.90;;;;;;5097579;28;20059;-63
2020/12/16 02:44:54;;;;;;;8.70;2.40;;;9.80;99.90;;;;;;5097555;28;20489;-63
2020/12/16 02:47:20;;;;;;;8.90;1.90;;;9.90;99.90;;;;;;5097553;28;20034;-64
2020/12/16 02:49:46;;;;;;;9.03;1.70;;;9.90;99.90;;;;;;5097223;28;20034;-63
2020/12/16 02:52:12;;;;;;;9.57;3.20;;;9.90;99.90;;;;;;5097410;28;20028;-62
2020/12/16 02:54:37;;;;;;;9.23;2.07;;;10.00;99.90;;;;;;5092017;28;20032;-62
2020/12/16 02:57:03;;;;;;;13.67;2.30;;;10.00;99.90;;;;;;5117058;28;20110;-62
2020/12/16 02:59:29;;;;;;;15.50;3.43;;;10.10;99.90;;;;;;5117665;28;20035;-62
2020/12/16 03:01:56;;;;;;;6.67;1.70;;;10.10;99.90;;;;;;5117421;28;20030;-62
2020/12/16 03:04:23;;;;;;;11.37;3.20;;;10.10;99.90;;;;;;5109453;28;20072;-62
2020/12/16 03:06:50;;;;;;;6.77;1.87;;;10.10;99.90;;;;;;5096904;28;20032;-62
2020/12/16 03:09:17;;;;;;;8.23;2.50;;;10.20;99.90;;;;;;5111139;28;20028;-62
2020/12/16 03:11:43;;;;;;;11.63;2.33;;;10.20;99.90;;;;;;5097106;28;20426;-63
2020/12/16 03:14:09;;;;;;;12.67;2.40;;;10.10;99.90;;;;;;5096628;28;20078;-63
2020/12/16 03:16:35;;;;;;;10.73;3.23;;;10.10;99.90;;;;;;5078737;28;20441;-62
2020/12/16 03:19:01;;;;;;;12.13;2.37;;;10.20;99.90;;;;;;5105107;28;20134;-62
2020/12/16 03:21:27;;;;;;;13.13;2.37;;;10.10;99.90;;;;;;5099139;28;20369;-62
2020/12/16 03:23:53;;;;;;;4.87;1.87;;;10.10;99.90;;;;;;5116349;28;20032;-62
2020/12/16 03:26:19;;;;;;;10.20;2.57;;;10.10;99.90;;;;;;5117097;28;20500;-62
2020/12/16 03:28:45;;;;;;;8.83;3.37;;;10.20;99.90;;;;;;5116970;28;20449;-62
2020/12/16 03:31:13;;;;;;;23.13;3.60;;;10.20;99.90;;;;;;5098369;28;20342;-63
2020/12/16 03:33:40;;;;;;;13.93;3.77;;;10.20;99.90;;;;;;5096681;28;20107;-62
2020/12/16 03:36:06;;;;;;;9.53;2.87;;;10.10;99.90;;;;;;5114045;28;20118;-62
2020/12/16 03:38:32;;;;;;;14.07;1.93;;;10.10;99.90;;;;;;5086232;28;20519;-62
2020/12/16 03:40:58;;;;;;;8.67;2.10;;;10.10;99.90;;;;;;5076094;28;20064;-62
2020/12/16 03:43:24;;;;;;;8.10;2.57;;;10.10;99.90;;;;;;5083258;28;20373;-63
2020/12/16 03:45:50;;;;;;;10.97;2.80;;;10.00;99.90;;;;;;5096249;28;20028;-63
2020/12/16 03:48:17;;;;;;;9.43;2.40;;;10.10;99.90;;;;;;5096107;28;20089;-63
2020/12/16 03:50:43;;;;;;;5.33;1.33;;;10.00;99.90;;;;;;5085590;28;20028;-62
2020/12/16 03:53:09;;;;;;;5.50;2.33;;;10.00;99.90;;;;;;5091736;28;20375;-63
2020/12/16 03:55:34;;;;;;;14.17;3.50;;;10.10;99.90;;;;;;5096105;28;20118;-63
2020/12/16 03:58:00;;;;;;;8.97;2.37;;;10.00;99.90;;;;;;5080704;28;20119;-63
2020/12/16 04:00:26;;;;;;;8.60;2.50;;;10.00;99.90;;;;;;5096159;28;20076;-63
2020/12/16 04:02:51;;;;;;;8.50;2.40;;;10.10;99.90;;;;;;5095774;28;20024;-62
2020/12/16 04:05:17;;;;;;;9.63;2.73;;;10.00;99.90;;;;;;5096003;28;20469;-63
2020/12/16 04:07:42;;;;;;;6.73;1.83;;;10.00;99.90;;;;;;5095967;28;20118;-63
2020/12/16 04:10:08;;;;;;;8.50;2.13;;;10.00;99.90;;;;;;5096171;28;20024;-63
2020/12/16 04:12:34;;;;;;;9.63;2.30;;;9.90;99.90;;;;;;5096422;28;20031;-63
2020/12/16 04:14:59;;;;;;;16.80;3.33;;;9.90;99.90;;;;;;5095223;28;20456;-63
2020/12/16 04:17:25;;;;;;;8.37;2.50;;;9.90;99.90;;;;;;5076030;28;20060;-63
2020/12/16 04:19:51;;;;;;;10.17;1.90;;;9.80;99.90;;;;;;5075731;28;20107;-62
2020/12/16 04:22:16;;;;;;;9.20;2.23;;;9.80;99.90;;;;;;5076135;28;20393;-62
2020/12/16 04:24:42;;;;;;;10.33;2.33;;;9.70;99.90;;;;;;5086316;28;20032;-63
2020/12/16 04:27:08;;;;;;;5.60;1.90;;;9.80;99.90;;;;;;5079701;28;20039;-63
2020/12/16 04:29:33;;;;;;;9.83;2.80;;;9.70;99.90;;;;;;5075731;28;20039;-63
2020/12/16 04:31:59;;;;;;;14.70;3.10;;;9.80;99.90;;;;;;5075453;28;20362;-62
2020/12/16 04:34:25;;;;;;;14.40;3.57;;;9.80;99.90;;;;;;5081940;28;20315;-63
2020/12/16 04:36:51;;;;;;;8.47;3.53;;;9.80;99.90;;;;;;5083748;28;20324;-62
2020/12/16 04:39:18;;;;;;;13.60;3.50;;;9.80;99.90;;;;;;5095396;28;20056;-63
2020/12/16 04:41:44;;;;;;;12.07;2.60;;;9.70;99.90;;;;;;5096216;28;20438;-63
2020/12/16 04:44:12;;;;;;;10.87;4.27;;;9.70;99.90;;;;;;5077322;28;20043;-62
2020/12/16 04:46:40;;;;;;;11.17;3.20;;;9.70;99.90;;;;;;5095979;28;20023;-63
2020/12/16 04:49:07;;;;;;;9.40;1.50;;;9.80;99.90;;;;;;5095517;28;20020;-62
2020/12/16 04:51:35;;;;;;;12.43;3.17;;;9.80;99.90;;;;;;5095963;28;20059;-63
2020/12/16 04:54:01;;;;;;;6.17;2.27;;;9.80;99.90;;;;;;5109350;28;20038;-63
2020/12/16 04:56:26;;;;;;;9.17;2.30;;;9.80;99.90;;;;;;5096288;28;20103;-63
2020/12/16 04:58:54;;;;;;;9.03;1.73;;;9.80;99.90;;;;;;5107208;28;20043;-63
2020/12/16 05:01:20;;;;;;;6.87;1.73;;;9.80;99.90;;;;;;5118855;28;20350;-63
2020/12/16 05:03:45;;;;;;;9.17;2.87;;;9.80;99.90;;;;;;5101685;28;20035;-63
2020/12/16 05:06:11;;;;;;;6.80;2.80;;;9.70;99.90;;;;;;5119733;28;20027;-64
2020/12/16 05:08:37;;;;;;;9.13;1.90;;;9.70;99.90;;;;;;5120003;28;20110;-67
2020/12/16 05:11:04;;;;;;;11.17;2.27;;;9.70;99.90;;;;;;5119834;28;20091;-64
2020/12/16 05:13:30;;;;;;;7.57;2.20;;;9.70;99.90;;;;;;5119378;28;20374;-64
2020/12/16 05:16:01;;;;;;;12.27;2.43;;;9.70;99.90;;;;;;5119046;28;20070;-64
2020/12/16 05:18:27;;;;;;;12.33;3.33;;;9.70;99.90;;;;;;5118942;28;20047;-64
2020/12/16 05:20:57;;;;;;;8.70;2.23;;;9.70;99.90;;;;;;5119380;28;20062;-64
2020/12/16 05:23:25;;;;;;;6.30;2.17;;;9.70;99.90;;;;;;5105271;28;20043;-64
2020/12/16 05:26:08;;;;;;;11.43;3.53;;;9.70;99.90;;;;;;5099659;28;20034;-65
2020/12/16 05:28:45;;;;;;;7.07;2.28;;;9.80;99.90;;;;;;5099905;28;20032;-65
2020/12/16 05:31:11;;;;;;;14.40;2.33;;;9.70;99.90;;;;;;5100803;28;20031;-65
2020/12/16 05:33:45;;;;;;;11.17;2.20;;;9.60;99.90;;;;;;5098778;28;20028;-65
2020/12/16 05:36:11;;;;;;;6.83;2.80;;;9.70;99.90;;;;;;5098796;28;20012;-64
2020/12/16 05:38:53;;;;;;;8.73;1.60;;;9.80;99.90;;;;;;5098126;28;20081;-64
2020/12/16 05:41:53;;;;;;;22.27;2.77;;;9.80;99.90;;;;;;5098491;28;20016;-64
2020/12/16 05:44:24;;;;;;;8.57;2.20;;;9.80;99.90;;;;;;5105347;28;20021;-64
2020/12/16 05:46:51;;;;;;;14.57;2.00;;;9.80;99.90;;;;;;5119191;28;20031;-64
2020/12/16 05:49:27;;;;;;;5.90;2.00;;;9.80;99.90;;;;;;5118837;28;20039;-65
2020/12/16 05:52:03;;;;;;;9.97;3.07;;;9.80;99.90;;;;;;5118537;28;20038;-64
2020/12/16 05:54:30;;;;;;;7.63;2.20;;;9.80;99.90;;;;;;5118988;28;20051;-64
2020/12/16 05:57:12;;;;;;;9.37;1.93;;;9.80;99.90;;;;;;5118803;28;20346;-64
2020/12/16 05:59:39;;;;;;;8.70;1.80;;;9.80;99.90;;;;;;5118793;28;20019;-64
2020/12/16 06:02:05;;;;;;;11.90;2.97;;;9.80;99.90;;;;;;5118641;28;20449;-64
2020/12/16 06:04:35;;;;;;;8.73;2.37;;;9.80;99.90;;;;;;5118156;28;20066;-64
2020/12/16 06:07:06;;;;;;;3.57;1.80;;;9.70;99.90;;;;;;5118699;28;20036;-64
2020/12/16 06:09:32;;;;;;;8.93;2.70;;;9.80;99.90;;;;;;5118439;28;20065;-65
2020/12/16 06:12:05;;;;;;;8.03;2.10;;;9.80;99.90;;;;;;5117503;28;20038;-64
2020/12/16 06:14:34;;;;;;;11.32;1.77;;;9.80;99.90;;;;;;5117728;28;20038;-65
2020/12/16 06:17:11;;;;;;;9.03;2.00;;;9.80;99.90;;;;;;5118491;28;20040;-64
2020/12/16 06:19:43;;;;;;;8.17;1.40;;;9.80;99.90;;;;;;5117346;28;20106;-64
2020/12/16 06:22:09;;;;;;;5.40;1.60;;;9.80;99.90;;;;;;5115225;28;20020;-65
2020/12/16 06:24:44;;;;;;;10.47;2.40;;;9.80;99.90;;;;;;5097662;28;20438;-64
2020/12/16 06:27:11;;;;;;;3.33;1.43;;;9.80;99.90;;;;;;5097717;28;20422;-65
2020/12/16 06:29:48;;;;;;;5.63;1.57;;;9.80;99.90;;;;;;5097381;28;20111;-64
2020/12/16 06:32:30;;;;;;;8.73;1.80;;;9.80;99.90;;;;;;5098051;28;20032;-64
2020/12/16 06:34:59;;;;;;;6.70;1.77;;;9.90;99.90;;;;;;5079348;28;20559;-64
2020/12/16 06:37:24;;;;;;;13.30;2.53;;;9.90;99.90;;;;;;5096438;28;20137;-64
2020/12/16 06:39:50;;;;;;;10.63;2.23;;;9.90;99.90;;;;;;5097509;28;20430;-65
2020/12/16 06:42:32;;;;;;;8.87;1.93;;;9.90;99.90;;;;;;5097565;28;20114;-65
2020/12/16 06:45:16;;;;;;;14.13;2.93;;;9.90;99.90;;;;;;5096480;28;20028;-65
2020/12/16 06:47:45;;;;;;;5.90;2.20;;;9.80;99.90;;;;;;5097550;28;20020;-65
2020/12/16 06:50:21;;;;;;;15.30;3.33;;;9.80;99.90;;;;;;5097152;28;20031;-67
2020/12/16 06:52:48;;;;;;;12.30;3.50;;;9.80;99.90;;;;;;5097626;28;20024;-65
2020/12/16 06:55:14;;;;;;;12.77;2.23;;;9.80;99.90;;;;;;5098399;28;20074;-65
2020/12/16 06:57:50;;;;;;;14.43;2.43;;;9.80;99.90;;;;;;5117807;28;20031;-65
2020/12/16 07:00:21;;;;;;;10.87;2.37;;;9.80;99.90;;;;;;5117402;28;20038;-66
2020/12/16 07:02:48;;;;;;;9.40;2.33;;;9.80;99.90;;;;;;5099199;28;20016;-66
2020/12/16 07:05:42;;;;;;;15.33;2.43;;;9.80;99.90;;;;;;5117207;28;20023;-66
2020/12/16 07:08:08;;;;;;;8.97;1.83;;;9.70;99.90;;;;;;5117938;28;20055;-65
2020/12/16 07:10:33;;;;;;;10.63;2.10;;;9.70;99.90;;;;;;5117266;28;20027;-66
2020/12/16 07:13:10;;;;;;;14.03;3.57;;;9.70;99.90;;;;;;5117363;28;20031;-65
2020/12/16 07:15:52;;;;;;;13.30;3.77;;;9.70;99.90;;;;;;5117167;28;20413;-65
2020/12/16 07:18:27;;;;;;;7.50;2.13;;;9.70;99.90;;;;;;5099041;28;20367;-65
2020/12/16 07:21:08;;;;;;;10.00;3.23;;;9.70;99.90;;;;;;5116863;28;20020;-65
2020/12/16 07:23:38;;;;;;;9.67;2.50;;;9.70;99.90;;;;;;5082971;28;20025;-65
2020/12/16 07:26:04;;;;;;;11.60;2.80;;;9.80;99.90;;;;;;5096225;28;20107;-65
2020/12/16 07:28:36;;;;;;;9.37;2.43;;;9.80;99.90;;;;;;5096725;28;20501;-65
2020/12/16 07:31:06;;;;;;;8.20;1.90;;;9.80;99.90;;;;;;5096757;28;20031;-65
2020/12/16 07:33:33;;;;;;;5.93;1.90;;;9.80;99.90;;;;;;5096590;28;20028;-66
2020/12/16 07:36:00;;;;;;;6.47;2.33;;;9.80;99.90;;;;;;5096431;28;20016;-65
2020/12/16 07:38:26;;;;;;;9.27;2.43;;;9.80;99.90;;;;;;5102723;28;20044;-66
2020/12/16 07:40:53;;;;;;;10.97;1.90;;;9.80;99.90;;;;;;5116957;28;20027;-67
2020/12/16 07:43:20;;;;;;;9.97;2.43;;;9.80;99.90;;;;;;5116280;28;20020;-64
2020/12/16 07:45:59;;;;;;;9.83;2.30;;;9.80;99.90;;;;;;5116323;28;20043;-64
2020/12/16 07:48:25;;;;;;;7.93;2.37;;;9.80;99.90;;;;;;5116514;28;20035;-67
2020/12/16 07:51:00;;;;;;;9.10;2.17;;;9.80;99.90;;;;;;5098204;28;20402;-65
2020/12/16 07:53:26;;;;;;;10.37;2.93;;;9.70;99.90;;;;;;5116292;28;20027;-65
2020/12/16 07:56:03;;;;;;;8.27;2.80;;;9.70;99.90;;;;;;5098568;28;20038;-65
2020/12/16 07:58:30;;;;;;;10.57;2.70;;;9.70;99.90;;;;;;5115848;28;20346;-65
2020/12/16 08:01:10;;;;;;;17.77;2.87;;;9.70;99.90;;;;;;5116533;28;20430;-66
2020/12/16 08:03:36;;;;;;;8.73;2.37;;;9.80;99.90;;;;;;5116435;28;20024;-65
2020/12/16 08:06:03;;;;;;;17.13;3.23;;;9.80;99.90;;;;;;5116137;28;20031;-65
2020/12/16 08:08:29;;;;;;;12.80;2.07;;;9.80;99.90;;;;;;5097642;28;20030;-67
2020/12/16 08:10:56;;;;;;;8.70;2.47;;;9.80;99.90;;;;;;5116118;28;20111;-65
2020/12/16 08:13:23;;;;;;;9.13;2.47;;;9.80;99.90;;;;;;5116268;28;20109;-65
2020/12/16 08:15:49;;;;;;;10.63;2.73;;;9.70;99.90;;;;;;5097417;28;20118;-67
2020/12/16 08:18:16;;;;;;;6.90;2.43;;;9.80;99.90;;;;;;5116057;28;20090;-67
2020/12/16 08:20:42;;;;;;;9.10;2.60;;;9.70;99.90;;;;;;5115713;28;20026;-67
2020/12/16 08:23:11;;;;;;;8.50;3.63;;;9.70;99.90;;;;;;5104494;28;20116;-65
2020/12/16 08:25:37;;;;;;;11.07;2.93;;;9.70;99.90;;;;;;5095614;28;20047;-65
2020/12/16 08:28:06;;;;;;;13.47;3.10;;;9.70;99.90;;;;;;5096430;28;20054;-65
2020/12/16 08:30:32;;;;;;;11.20;2.53;;;9.70;99.90;;;;;;5095881;28;20090;-65
2020/12/16 08:33:05;;;;;;;8.03;2.47;;;9.70;99.90;;;;;;5095574;28;20081;-66
2020/12/16 08:35:37;;;;;;;8.73;2.50;;;9.70;99.90;;;;;;5098206;28;20024;-66
2020/12/16 08:38:09;;;;;;;10.13;3.15;;;9.70;99.90;;;;;;5105684;28;20070;-66
2020/12/16 08:40:46;;;;;;;11.90;2.97;;;9.70;99.90;;;;;;5120463;28;20051;-66
2020/12/16 08:43:17;;;;;;;10.00;2.07;;;9.70;99.90;;;;;;5120543;28;20023;-66
2020/12/16 08:45:43;;;;;;;11.30;2.70;;;9.80;99.90;;;;;;5120119;28;20469;-66
2020/12/16 08:48:10;;;;;;;9.80;3.33;;;9.80;99.90;;;;;;5119630;28;20376;-66
2020/12/16 08:50:35;;;;;;;8.93;3.33;;;9.80;99.90;;;;;;5119873;28;20333;-66
2020/12/16 08:53:01;;;;;;;9.13;3.27;;;9.80;99.90;;;;;;5119515;28;20106;-67
2020/12/16 08:55:32;;;;;;;12.27;2.23;;;9.70;99.90;;;;;;5120137;28;20038;-68
2020/12/16 08:58:01;;;;;;;12.87;2.80;;;9.80;99.90;;;;;;5119551;28;20022;-69
2020/12/16 09:00:35;;;;;;;12.27;2.57;;;9.80;99.90;;;;;;5119633;28;20031;-66
2020/12/16 09:03:09;;;;;;;7.73;2.63;;;9.80;99.90;;;;;;5099755;28;20127;-67
2020/12/16 09:05:37;;;;;;;5.47;2.53;;;9.80;99.90;;;;;;5099280;28;20035;-68
2020/12/16 09:08:09;;;;;;;10.60;2.90;;;9.80;99.90;;;;;;5099177;28;20035;-68
2020/12/16 09:10:36;;;;;;;11.23;3.07;;;9.90;99.90;;;;;;5099904;28;20458;-68
2020/12/16 09:13:13;;;;;;;8.77;2.70;;;9.90;99.90;;;;;;5099042;28;20025;-67
2020/12/16 09:15:42;;;;;;;5.63;2.23;;;9.90;99.90;;;;;;5111479;28;20092;-67
2020/12/16 09:18:08;;;;;;;13.77;3.47;;;9.90;99.90;;;;;;5119475;28;20064;-68
2020/12/16 09:20:34;;;;;;;9.30;3.30;;;9.90;99.90;;;;;;5119043;28;20453;-68
2020/12/16 09:23:00;;;;;;;8.93;2.30;;;9.90;99.90;;;;;;5118738;28;20019;-68
2020/12/16 09:25:25;;;;;;;7.63;3.53;;;9.90;99.90;;;;;;5109391;28;20480;-68
2020/12/16 09:27:56;;;;;;;11.20;2.40;;;9.90;99.90;;;;;;5118957;28;20073;-69
2020/12/16 09:30:34;;;;;;;9.53;2.97;;;9.90;99.90;;;;;;5116521;28;20028;-69
2020/12/16 09:33:29;;;;;;;8.20;2.20;;;9.90;99.90;;;;;;5113812;28;20043;-69
2020/12/16 09:35:55;;;;;;;9.97;3.20;;;9.80;99.90;;;;;;5074082;28;20158;-68
2020/12/16 09:38:21;;;;;;;9.57;2.63;;;9.90;99.90;;;;;;5111381;28;20938;-68
2020/12/16 09:40:47;;;;;;;7.97;2.93;;;9.90;99.90;;;;;;5096784;28;20139;-67
2020/12/16 09:43:14;;;;;;;8.70;2.73;;;9.90;99.90;;;;;;5118448;28;20028;-66
2020/12/16 09:45:40;;;;;;;8.27;3.27;;;9.90;99.90;;;;;;5116940;28;20028;-66
2020/12/16 09:48:07;;;;;;;5.87;2.10;;;9.90;99.90;;;;;;5114192;28;20046;-66
2020/12/16 09:50:35;;;;;;;8.17;2.40;;;9.90;99.90;;;;;;5117675;28;20552;-67
2020/12/16 09:53:05;;;;;;;9.10;3.23;;;9.90;99.90;;;;;;5111829;28;20027;-66
2020/12/16 09:55:37;;;;;;;9.93;3.20;;;9.90;99.90;;;;;;5118537;28;20031;-67
2020/12/16 09:58:06;;;;;;;7.77;2.43;;;9.90;99.90;;;;;;5113382;28;20020;-67
2020/12/16 10:00:34;;;;;;;12.73;3.33;;;9.90;99.90;;;;;;5105524;28;20107;-66
2020/12/16 10:03:02;;;;;;;5.27;1.97;;;9.90;99.90;;;;;;5117651;28;20023;-66
2020/12/16 10:05:29;;;;;;;12.87;3.33;;;9.90;99.90;;;;;;5118579;28;20493;-66
2020/12/16 10:07:55;;;;;;;8.23;3.23;;;9.90;99.90;;;;;;5117995;28;20023;-66
2020/12/16 10:10:22;;;;;;;8.63;3.07;;;9.90;99.90;;;;;;5100411;28;20127;-66
2020/12/16 10:12:49;;;;;;;9.40;3.40;;;9.90;99.90;;;;;;5100027;28;20409;-66
2020/12/16 10:15:15;;;;;;;13.77;3.90;;;9.90;99.90;;;;;;5100667;28;20355;-65
2020/12/16 10:17:41;;;;;;;7.30;2.73;;;10.00;99.90;;;;;;5118723;28;20479;-66
2020/12/16 10:20:07;;;;;;;9.73;2.57;;;9.90;99.90;;;;;;5117571;28;20016;-66
2020/12/16 10:22:33;;;;;;;9.07;2.80;;;9.90;99.90;;;;;;5111751;28;20107;-67
2020/12/16 10:25:00;;;;;;;6.20;3.07;;;10.00;99.90;;;;;;5097649;28;20135;-67
2020/12/16 10:27:28;;;;;;;10.33;4.43;;;10.00;99.90;;;;;;5097753;28;20426;-67
2020/12/16 10:29:55;;;;;;;7.50;2.73;;;10.00;99.90;;;;;;5097590;28;20035;-65
2020/12/16 10:32:21;;;;;;;7.50;2.77;;;10.00;99.90;;;;;;5097765;28;20097;-66
2020/12/16 10:34:47;;;;;;;10.40;3.83;;;10.00;99.90;;;;;;5079483;28;20431;-66
2020/12/16 10:37:12;;;;;;;7.93;1.97;;;10.00;99.90;;;;;;5097552;28;20032;-67
2020/12/16 10:39:38;;;;;;;10.10;2.47;;;9.90;99.90;;;;;;5097454;28;20139;-68
2020/12/16 10:42:04;;;;;;;11.07;2.83;;;9.90;99.90;;;;;;5097214;28;20043;-67
2020/12/16 10:44:29;;;;;;;9.23;2.53;;;10.00;99.90;;;;;;5097877;28;20027;-67
2020/12/16 10:46:55;;;;;;;9.67;3.90;;;10.00;99.90;;;;;;5097415;28;20027;-68
2020/12/16 10:49:25;;;;;;;10.00;3.30;;;9.90;99.90;;;;;;5097639;28;20028;-67
2020/12/16 10:51:52;;;;;;;15.30;2.87;;;9.90;99.90;;;;;;5097466;28;20045;-67
2020/12/16 10:54:20;;;;;;;11.27;4.20;;;9.90;99.90;;;;;;5097046;28;20031;-68
2020/12/16 10:56:51;;;;;;;13.70;2.80;;;9.90;99.90;;;;;;5078740;28;20321;-68
2020/12/16 10:59:16;;;;;;;8.90;3.87;;;9.90;99.90;;;;;;5096557;28;20012;-67
2020/12/16 11:01:42;;;;;;;7.60;2.60;;;9.90;99.90;;;;;;5097027;28;20074;-68
2020/12/16 11:04:08;;;;;;;11.77;4.33;;;9.90;99.90;;;;;;5097047;28;20039;-68
2020/12/16 11:06:35;;;;;;;9.83;4.37;;;9.90;99.90;;;;;;5096978;28;20028;-68
2020/12/16 11:09:01;;;;;;;7.67;3.83;;;9.90;99.90;;;;;;5096828;28;20031;-68
2020/12/16 11:11:26;;;;;;;12.97;4.63;;;9.90;99.90;;;;;;5078638;28;20028;-66
2020/12/16 11:13:53;;;;;;;10.03;2.97;;;9.90;99.90;;;;;;5062112;28;20030;-66
2020/12/16 11:16:19;;;;;;;7.83;3.03;;;9.90;99.90;;;;;;5096930;28;20016;-65
2020/12/16 11:18:48;;;;;;;9.37;3.43;;;9.90;99.90;;;;;;5079050;28;20028;-65
2020/12/16 11:21:14;;;;;;;11.57;2.90;;;9.90;99.90;;;;;;5078871;28;20051;-66
2020/12/16 11:23:42;;;;;;;13.57;3.23;;;9.90;99.90;;;;;;5104089;28;20027;-66
2020/12/16 11:26:08;;;;;;;12.67;3.80;;;9.90;99.90;;;;;;5062368;28;20453;-66
2020/12/16 11:28:34;;;;;;;10.77;3.03;;;9.90;99.90;;;;;;5096832;28;20027;-65
2020/12/16 11:31:03;;;;;;;14.87;3.13;;;9.90;99.90;;;;;;5095974;28;20042;-66
2020/12/16 11:33:28;;;;;;;9.13;3.47;;;9.90;99.90;;;;;;5101988;28;20028;-68
2020/12/16 11:35:55;;;;;;;10.37;2.50;;;9.90;99.90;;;;;;5097144;28;20493;-67
2020/12/16 11:38:36;;;;;;;9.77;3.30;;;10.00;99.90;;;;;;5049421;28;20062;-68
2020/12/16 11:41:03;;;;;;;11.73;3.60;;;10.00;99.90;;;;;;5115996;28;20164;-68
2020/12/16 11:43:28;;;;;;;11.80;3.30;;;10.00;99.90;;;;;;5115771;28;20041;-68
2020/12/16 11:45:54;;;;;;;7.07;3.40;;;10.10;99.90;;;;;;5104047;28;20283;-68
2020/12/16 11:48:20;;;;;;;7.37;1.80;;;10.10;99.90;;;;;;5091504;28;20666;-68
2020/12/16 11:50:46;;;;;;;4.80;1.33;;;10.00;99.90;;;;;;5105880;28;20396;-69
2020/12/16 11:53:12;;;;;;;7.43;2.40;;;9.50;99.90;;;;;;5083472;28;20549;-68
2020/12/16 11:55:38;;;;;;;10.67;1.90;;;9.30;99.90;;;;;;5109915;28;20032;-67
2020/12/16 11:58:04;;;;;;;10.57;2.87;;;9.30;99.90;;;;;;5105170;28;20446;-66
2020/12/16 12:00:29;;;;;;;5.87;2.00;;;9.00;99.90;;;;;;5087351;28;20027;-66
2020/12/16 12:02:55;;;;;;;9.63;2.57;;;8.90;99.90;;;;;;5105485;28;20042;-66
2020/12/16 12:05:21;;;;;;;8.83;2.20;;;9.00;99.90;;;;;;5111772;28;20039;-67
2020/12/16 12:07:46;;;;;;;9.33;2.30;;;8.90;99.90;;;;;;5087608;28;20023;-67
2020/12/16 12:10:12;;;;;;;10.77;2.57;;;9.00;99.90;;;;;;5096548;28;20079;-65
2020/12/16 12:12:38;;;;;;;10.37;3.13;;;8.90;99.90;;;;;;5111358;28;20417;-66
2020/12/16 12:15:04;;;;;;;9.43;2.17;;;8.90;99.90;;;;;;5113706;28;20102;-65
2020/12/16 12:17:30;;;;;;;6.00;1.73;;;9.00;99.90;;;;;;5108536;28;20032;-64
2020/12/16 12:19:56;;;;;;;7.50;2.13;;;9.00;99.90;;;;;;5114891;28;20020;-65
2020/12/16 12:22:21;;;;;;;10.97;2.60;;;9.00;99.90;;;;;;5096170;28;20331;-65
2020/12/16 12:24:49;;;;;;;7.73;1.60;;;9.00;99.90;;;;;;5107844;28;20161;-66
2020/12/16 12:27:15;;;;;;;6.20;2.00;;;9.10;99.90;;;;;;5101161;28;20019;-66
2020/12/16 12:29:41;;;;;;;10.77;2.63;;;9.20;99.90;;;;;;5099942;28;20113;-65
2020/12/16 12:32:07;;;;;;;8.63;2.33;;;9.10;99.90;;;;;;5101146;28;20036;-65
2020/12/16 12:34:33;;;;;;;7.00;1.87;;;9.10;99.90;;;;;;5108803;28;20043;-64
2020/12/16 12:37:01;;;;;;;6.63;2.10;;;9.10;99.90;;;;;;5090184;28;20027;-66
2020/12/16 12:39:27;;;;;;;8.03;3.37;;;9.10;99.90;;;;;;5100528;28;20063;-66
2020/12/16 12:41:53;;;;;;;33.10;29.90;;;9.00;99.90;;;;;;5112432;28;20430;-65
2020/12/16 12:44:19;;;;;;;8.23;2.87;;;9.10;99.90;;;;;;5111018;28;20036;-65
2020/12/16 12:46:48;;;;;;;5.60;1.87;;;9.00;99.90;;;;;;5111252;28;20031;-65
2020/12/16 12:49:14;;;;;;;6.77;2.70;;;9.10;99.90;;;;;;5102381;28;20043;-65
2020/12/16 12:51:40;;;;;;;6.03;2.30;;;9.10;99.90;;;;;;5113509;28;20040;-65
2020/12/16 12:54:06;;;;;;;6.37;3.57;;;9.00;99.90;;;;;;5109395;28;20134;-66